Citadel — PBOK — position and weather

sailwx.info

Track history (hours):
 
Tides and Currents Weather Stations Pressure Air Temp Water Temp Dewpoint Dewpoint Depression Visibility Wind Speed Wind Dir Waves Ship Positions

Citadel

Last reported at 2018-Aug-14 23:30 UTC. Time now 2018-Aug-14 23:41 UTC.
Position N 52°20' E 003°37'.

Length 111 m; draft 4.3 m.

Type: Cargo ship. MMSI: 245977000.

Date/timePositionNaut miles runAvg speedWind from/ knotsBaromVisibWave heightAir tempDewpointWater temp
2018-Aug-14 23:30N 52°20' E 003°37'1110.9
2018-Aug-14 22:29N 52°10' E 003°29'511.0
2018-Aug-14 22:00N 52°05' E 003°25'611.3
2018-Aug-14 21:30N 51°59' E 003°24'711.8
2018-Aug-14 20:57N 51°53' E 003°21'612.3
2018-Aug-14 20:29N 51°47' E 003°18'511.5
2018-Aug-14 20:00N 51°42' E 003°18'713.6
2018-Aug-14 19:30N 51°36' E 003°23'714.1
2018-Aug-14 19:00N 51°30' E 003°29'612.1
2018-Aug-14 18:30N 51°26' E 003°36'611.1
2018-Aug-14 18:01N 51°23' E 003°44'5 9.3
2018-Aug-14 17:31N 51°20' E 003°49'1 2.0
2018-Aug-14 17:00N 51°19' E 003°50'4 7.6
2018-Aug-14 16:31N 51°15' E 003°49'4 7.7
2018-Aug-14 16:00N 51°11' E 003°48'1 3.0
2018-Aug-14 15:30N 51°10' E 003°47'0 0.0
2018-Aug-14 15:00N 51°10' E 003°47'0 0.0
2018-Aug-14 14:30N 51°10' E 003°47'0 0.0
2018-Aug-14 13:59N 51°10' E 003°47'0 0.0
2018-Aug-14 13:29N 51°10' E 003°47'0 0.0
2018-Aug-14 12:59N 51°10' E 003°47'0 0.0
2018-Aug-14 12:29N 51°10' E 003°47'0 0.0
2018-Aug-14 11:59N 51°10' E 003°47'0 0.0
2018-Aug-14 11:28N 51°10' E 003°47'0 0.0
2018-Aug-14 10:58N 51°10' E 003°47'0 0.0
2018-Aug-14 10:28N 51°10' E 003°47'0 0.0
2018-Aug-14 09:58N 51°10' E 003°47'0 0.0
2018-Aug-14 09:28N 51°10' E 003°47'0 0.0
2018-Aug-14 09:00N 51°10' E 003°47'0 0.0
2018-Aug-14 08:30N 51°10' E 003°47'0 0.0
2018-Aug-14 08:00N 51°10' E 003°47'0 0.0
2018-Aug-14 07:30N 51°10' E 003°47'0 0.0
2018-Aug-14 06:59N 51°10' E 003°47'0 0.0
2018-Aug-14 06:29N 51°10' E 003°47'0 0.0
2018-Aug-14 05:59N 51°10' E 003°47'0 0.0
2018-Aug-14 05:23N 51°10' E 003°47'0 0.0
2018-Aug-14 04:59N 51°10' E 003°47'0 0.0
2018-Aug-14 04:28N 51°10' E 003°47'0 0.0
2018-Aug-14 03:58N 51°10' E 003°47'0 0.0
2018-Aug-14 03:28N 51°10' E 003°47'0 0.0
2018-Aug-14 02:58N 51°10' E 003°47'0 0.0
2018-Aug-14 02:30N 51°10' E 003°47'0 0.0
2018-Aug-14 02:00N 51°10' E 003°47'0 0.0
2018-Aug-14 01:27N 51°10' E 003°47'0 0.0
2018-Aug-14 01:00N 51°10' E 003°47'0 0.0
2018-Aug-14 00:30N 51°10' E 003°47'0 0.0
2018-Aug-13 23:59N 51°10' E 003°47'0 0.0
2018-Aug-13 23:29N 51°10' E 003°47'0 0.0
2018-Aug-13 22:59N 51°10' E 003°47'0 0.0
2018-Aug-13 22:26N 51°10' E 003°47'0 0.0
2018-Aug-13 21:59N 51°10' E 003°47'0 0.0
2018-Aug-13 21:28N 51°10' E 003°47'0 0.0
2018-Aug-13 20:58N 51°10' E 003°47'0 0.0
2018-Aug-13 20:28N 51°10' E 003°47'0 0.0
2018-Aug-13 19:55N 51°10' E 003°47'0 0.0
2018-Aug-13 19:30N 51°10' E 003°47'0 0.0
2018-Aug-13 19:00N 51°10' E 003°47'0 0.0
2018-Aug-13 18:30N 51°10' E 003°47'0 0.0
2018-Aug-13 18:00N 51°10' E 003°47'0 0.0
2018-Aug-13 17:30N 51°10' E 003°47'0 0.0
2018-Aug-13 16:59N 51°10' E 003°47'0 0.0
2018-Aug-13 16:29N 51°10' E 003°47'0 0.0
2018-Aug-13 15:59N 51°10' E 003°47'0 0.0
2018-Aug-13 15:29N 51°10' E 003°47'0 0.0
2018-Aug-13 14:58N 51°10' E 003°47'0 0.0
2018-Aug-13 14:28N 51°10' E 003°47'0 0.0
2018-Aug-13 13:58N 51°10' E 003°47'0 0.0
2018-Aug-13 13:28N 51°10' E 003°47'0 0.2
2018-Aug-13 13:01N 51°10' E 003°47'2 4.7
2018-Aug-13 12:30N 51°12' E 003°48'3 6.9
2018-Aug-13 12:00N 51°15' E 003°50'3 6.5
2018-Aug-13 11:30N 51°19' E 003°50'1 2.3
2018-Aug-13 11:00N 51°20' E 003°49'0 0.7
2018-Aug-13 10:30N 51°20' E 003°49'1 1.9
2018-Aug-13 10:00N 51°21' E 003°48'4 8.4
2018-Aug-13 09:31N 51°23' E 003°43'4 8.8
2018-Aug-13 09:00N 51°26' E 003°37'5 9.7
2018-Aug-13 08:30N 51°25' E 003°29'5 9.8
2018-Aug-13 08:00N 51°24' E 003°21'5 9.0
2018-Aug-13 07:30N 51°24' E 003°14'5 9.5
2018-Aug-13 07:00N 51°24' E 003°07'5 9.2
2018-Aug-13 06:30N 51°23' E 002°59'510.4
2018-Aug-13 06:00N 51°22' E 002°51'510.3
2018-Aug-13 05:30N 51°22' E 002°43'4 6.8
2018-Aug-13 04:57N 51°21' E 002°37'3 4.2
2018-Aug-13 04:11N 51°20' E 002°33'0 0.1
2018-Aug-13 03:56N 51°20' E 002°33'0 0.0
2018-Aug-13 03:29N 51°20' E 002°33'0 0.0
2018-Aug-13 02:52N 51°20' E 002°33'0 0.0
2018-Aug-13 02:28N 51°20' E 002°33'0 0.0
2018-Aug-13 01:43N 51°20' E 002°33'0 0.0
2018-Aug-13 01:25N 51°20' E 002°33'0 0.0
2018-Aug-13 00:54N 51°20' E 002°33'0 0.0
2018-Aug-13 00:30N 51°20' E 002°33'0 0.1
2018-Aug-13 00:00N 51°20' E 002°33'0 0.2
2018-Aug-12 23:18N 51°20' E 002°32'0 0.0
2018-Aug-12 20:35N 51°20' E 002°32'0 0.1
2018-Aug-12 20:28N 51°20' E 002°32'0 0.0
2018-Aug-12 18:34N 51°20' E 002°32'0 0.0
2018-Aug-12 18:07N 51°20' E 002°32'0 0.0
2018-Aug-12 17:54N 51°20' E 002°32'0 0.1
2018-Aug-12 17:27N 51°20' E 002°32'0 0.1
2018-Aug-12 17:00N 51°20' E 002°32'0 0.0
2018-Aug-12 16:24N 51°20' E 002°32'0 0.0
2018-Aug-12 16:00N 51°20' E 002°32'0 0.0
2018-Aug-12 15:29N 51°20' E 002°32'0 0.0
2018-Aug-12 14:56N 51°20' E 002°33'0 0.0
2018-Aug-12 14:29N 51°20' E 002°33'0 0.0
2018-Aug-12 13:59N 51°20' E 002°33'0 0.1
2018-Aug-12 13:28N 51°20' E 002°33'0 0.0
2018-Aug-12 12:58N 51°20' E 002°33'0 0.0
2018-Aug-12 12:28N 51°20' E 002°33'0 0.1
2018-Aug-12 11:55N 51°20' E 002°33'0 0.1
2018-Aug-12 11:28N 51°20' E 002°33'0 0.3
2018-Aug-12 11:00N 51°20' E 002°32'0 0.1
2018-Aug-12 10:18N 51°20' E 002°32'0 0.0
2018-Aug-12 09:57N 51°20' E 002°32'0 0.0
2018-Aug-12 09:30N 51°20' E 002°32'0 0.0
2018-Aug-12 08:53N 51°20' E 002°32'0 0.0
2018-Aug-12 08:29N 51°20' E 002°32'0 0.0
2018-Aug-12 07:59N 51°20' E 002°32'0 0.0
2018-Aug-12 07:29N 51°20' E 002°32'0 0.1
2018-Aug-12 06:56N 51°20' E 002°32'0 0.1
2018-Aug-12 06:25N 51°20' E 002°32'0 0.1
2018-Aug-12 05:58N 51°20' E 002°32'0 0.1
2018-Aug-12 05:28N 51°20' E 002°32'0 0.1
2018-Aug-12 04:58N 51°20' E 002°32'0 0.1
2018-Aug-12 04:25N 51°20' E 002°32'0 0.0
2018-Aug-12 03:57N 51°20' E 002°32'0 0.0
2018-Aug-12 03:30N 51°20' E 002°33'0 0.1
2018-Aug-12 03:00N 51°20' E 002°33'0 0.0
2018-Aug-12 02:27N 51°20' E 002°33'0 0.0
2018-Aug-12 01:59N 51°20' E 002°33'0 0.0
2018-Aug-12 01:29N 51°20' E 002°33'0 0.0
2018-Aug-12 00:59N 51°20' E 002°33'0 0.0
2018-Aug-12 00:29N 51°20' E 002°33'0 0.0
2018-Aug-11 23:59N 51°20' E 002°33'0 0.0
2018-Aug-11 23:25N 51°20' E 002°33'0 0.3
2018-Aug-11 22:58N 51°20' E 002°32'0 0.2
2018-Aug-11 22:25N 51°20' E 002°32'0 0.0
2018-Aug-11 21:58N 51°20' E 002°32'0 0.0
2018-Aug-11 21:16N 51°20' E 002°32'0 0.0
2018-Aug-11 20:51N 51°20' E 002°32'0 0.0
2018-Aug-11 20:27N 51°20' E 002°32'0 0.0
2018-Aug-11 20:00N 51°20' E 002°32'0 0.1
2018-Aug-11 19:21N 51°20' E 002°32'0 0.1
2018-Aug-11 18:56N 51°20' E 002°32'0 0.1
2018-Aug-11 18:29N 51°20' E 002°32'0 0.0
2018-Aug-11 17:56N 51°20' E 002°32'0 0.0
2018-Aug-11 17:29N 51°20' E 002°32'0 0.1
2018-Aug-11 16:53N 51°20' E 002°32'0 0.1
2018-Aug-11 15:55N 51°20' E 002°32'0 0.0
2018-Aug-11 15:28N 51°20' E 002°32'0 0.0
2018-Aug-11 14:58N 51°20' E 002°32'0 0.0
2018-Aug-11 14:31N 51°20' E 002°32'0 0.0
2018-Aug-11 13:51N 51°20' E 002°33'0 0.0
2018-Aug-11 13:24N 51°20' E 002°33'0 0.0
2018-Aug-11 12:30N 51°20' E 002°33'0 0.0
2018-Aug-11 11:59N 51°20' E 002°32'0 0.0
2018-Aug-11 11:29N 51°20' E 002°32'0 0.2
2018-Aug-11 10:53N 51°20' E 002°33'0 0.4
2018-Aug-11 10:26N 51°20' E 002°32'0 0.2
2018-Aug-11 09:59N 51°20' E 002°32'0 0.1
2018-Aug-11 09:19N 51°20' E 002°32'0 0.0
2018-Aug-11 08:58N 51°20' E 002°32'0 0.0
2018-Aug-11 08:19N 51°20' E 002°32'0 0.1
2018-Aug-11 07:58N 51°20' E 002°32'0 0.1
2018-Aug-11 07:31N 51°20' E 002°32'0 0.1
2018-Aug-11 06:57N 51°20' E 002°32'0 0.0
2018-Aug-11 06:24N 51°20' E 002°32'0 0.0
2018-Aug-11 06:00N 51°20' E 002°32'0 0.0
2018-Aug-11 05:30N 51°20' E 002°32'0 0.1
2018-Aug-11 04:56N 51°20' E 002°32'0 0.2
2018-Aug-11 04:05N 51°20' E 002°33'0 0.0
2018-Aug-11 03:11N 51°20' E 002°33'0 0.0
2018-Aug-11 01:49N 51°20' E 002°33'0 0.3
2018-Aug-11 01:23N 51°20' E 002°32'2 4.4
2018-Aug-11 00:58N 51°22' E 002°31'612.0
2018-Aug-11 00:30N 51°20' E 002°23'612.8
2018-Aug-11 00:00N 51°16' E 002°14'613.1
2018-Aug-10 23:30N 51°13' E 002°05'713.2
2018-Aug-10 23:00N 51°10' E 001°56'713.2
2018-Aug-10 22:30N 51°06' E 001°47'713.5
2018-Aug-10 22:00N 51°01' E 001°40'713.3
2018-Aug-10 21:29N 50°56' E 001°32'612.2
2018-Aug-10 21:00N 50°51' E 001°28'611.4
2018-Aug-10 20:29N 50°46' E 001°24'55 9.8
2018-Aug-10 14:51N 50°20' E 000°07'5 9.2
2018-Aug-10 14:22N 50°19' E 000°00'6 9.1
2018-Aug-10 13:40N 50°18' W 000°09'2 9.0
2018-Aug-10 13:29N 50°17' W 000°12'5 8.8
2018-Aug-10 12:52N 50°15' W 000°20'4 8.8
2018-Aug-10 12:23N 50°14' W 000°26'6 9.0
2018-Aug-10 11:45N 50°13' W 000°35'18211.1
2018-Aug-09 19:20N 48°52' W 004°46'4 9.1
2018-Aug-09 18:56N 48°50' W 004°50'4 9.2
2018-Aug-09 18:30N 48°47' W 004°55'5 9.6
2018-Aug-09 18:01N 48°44' W 005°01'5 9.8
2018-Aug-09 17:30N 48°41' W 005°07'510.5
2018-Aug-09 17:00N 48°38' W 005°13'1310.5
2018-Aug-09 15:49N 48°28' W 005°24'2010.7
2018-Aug-09 13:53N 48°08' W 005°25'26910.6
2018-Aug-08 12:27N 43°39' W 005°40'4 9.0
2018-Aug-08 12:00N 43°35' W 005°41'0 0.3
2018-Aug-08 11:30N 43°35' W 005°41'0 0.0
2018-Aug-08 11:00N 43°35' W 005°41'0 0.0
2018-Aug-08 10:29N 43°35' W 005°41'0 0.0
2018-Aug-08 09:58N 43°35' W 005°41'0 0.0
2018-Aug-08 09:28N 43°35' W 005°41'0 0.0
2018-Aug-08 08:58N 43°35' W 005°41'0 0.0
2018-Aug-08 08:28N 43°35' W 005°41'0 0.0
2018-Aug-08 07:51N 43°35' W 005°41'0 0.0
2018-Aug-08 07:21N 43°35' W 005°41'0 0.0
2018-Aug-08 06:57N 43°35' W 005°41'0 0.0
2018-Aug-08 06:27N 43°35' W 005°41'0 0.0
2018-Aug-08 05:57N 43°35' W 005°41'0 0.0
2018-Aug-08 05:20N 43°35' W 005°41'0 0.0
2018-Aug-08 04:50N 43°35' W 005°41'0 0.0
2018-Aug-08 04:26N 43°35' W 005°41'0 0.0
2018-Aug-08 03:50N 43°35' W 005°41'0 0.0
2018-Aug-08 03:26N 43°35' W 005°41'0 0.0
2018-Aug-08 02:55N 43°35' W 005°41'0 0.1
2018-Aug-08 02:25N 43°35' W 005°41'0 0.0
2018-Aug-08 01:55N 43°35' W 005°41'0 0.0
2018-Aug-08 01:25N 43°35' W 005°41'0 0.0
2018-Aug-08 01:01N 43°35' W 005°41'0 0.0
2018-Aug-08 00:30N 43°35' W 005°41'0 0.5
2018-Aug-07 23:58N 43°35' W 005°41'2 0.4
2018-Aug-07 20:24N 43°36' W 005°39'0 0.0
2018-Aug-07 20:00N 43°36' W 005°39'0 0.0
2018-Aug-07 19:29N 43°36' W 005°39'0 0.0
2018-Aug-07 18:59N 43°36' W 005°39'0 0.0
2018-Aug-07 18:29N 43°36' W 005°39'0 0.0
2018-Aug-07 17:53N 43°36' W 005°39'0 0.1
2018-Aug-07 17:28N 43°36' W 005°39'0 0.0
2018-Aug-07 16:52N 43°36' W 005°39'0 0.0
2018-Aug-07 16:16N 43°36' W 005°39'0 0.0
2018-Aug-07 15:58N 43°36' W 005°39'0 0.0
2018-Aug-07 15:28N 43°36' W 005°39'0 0.0
2018-Aug-07 13:09N 43°36' W 005°39'0 0.2
2018-Aug-07 12:56N 43°36' W 005°39'0 0.0
2018-Aug-07 12:26N 43°36' W 005°39'0 0.0
2018-Aug-07 11:56N 43°36' W 005°39'0 0.0
2018-Aug-07 11:20N 43°36' W 005°39'0 0.0
2018-Aug-07 10:56N 43°36' W 005°39'0 0.0
2018-Aug-07 09:49N 43°36' W 005°39'0 0.0
2018-Aug-07 09:25N 43°36' W 005°39'0 0.0
2018-Aug-07 08:18N 43°36' W 005°39'0 0.0
2018-Aug-07 08:00N 43°36' W 005°39'0 0.0
2018-Aug-07 07:24N 43°36' W 005°39'0 0.0
2018-Aug-07 07:00N 43°36' W 005°39'0 0.0
2018-Aug-07 06:30N 43°36' W 005°39'0 0.0
2018-Aug-07 05:59N 43°36' W 005°39'0 0.0
2018-Aug-07 05:17N 43°36' W 005°39'0 0.0
2018-Aug-07 04:47N 43°36' W 005°39'0 0.0
2018-Aug-07 04:29N 43°36' W 005°39'0 0.0
2018-Aug-07 03:52N 43°36' W 005°39'0 0.0
2018-Aug-07 03:22N 43°36' W 005°39'0 0.0
2018-Aug-07 02:58N 43°36' W 005°39'0 0.0
2018-Aug-07 02:28N 43°36' W 005°39'0 0.0
2018-Aug-07 01:58N 43°36' W 005°39'0 0.0
2018-Aug-07 01:27N 43°36' W 005°39'0 0.0
2018-Aug-07 00:57N 43°36' W 005°39'0 0.1
2018-Aug-07 00:21N 43°36' W 005°39'0 0.0
2018-Aug-06 23:57N 43°36' W 005°39'0 0.0
2018-Aug-06 19:43N 43°36' W 005°39'0 0.0
2018-Aug-06 19:25N 43°36' W 005°39'0 0.0
2018-Aug-06 18:55N 43°36' W 005°39'0 0.0
2018-Aug-06 18:30N 43°36' W 005°39'0 0.0
2018-Aug-06 18:00N 43°36' W 005°39'0 0.0
2018-Aug-06 17:30N 43°36' W 005°39'0 0.0
2018-Aug-06 17:00N 43°36' W 005°39'0 0.0
2018-Aug-06 16:24N 43°36' W 005°39'0 0.0
2018-Aug-06 15:59N 43°36' W 005°39'0 0.0
2018-Aug-06 15:29N 43°36' W 005°39'0 0.0
2018-Aug-06 14:53N 43°36' W 005°39'0 0.1
2018-Aug-06 14:29N 43°36' W 005°39'0 0.1
2018-Aug-06 13:58N 43°36' W 005°39'0 0.1
2018-Aug-06 13:22N 43°36' W 005°39'0 0.0
2018-Aug-06 12:58N 43°36' W 005°39'0 0.0
2018-Aug-06 12:28N 43°36' W 005°39'0 0.0
2018-Aug-06 11:52N 43°36' W 005°39'0 0.1
2018-Aug-06 11:27N 43°36' W 005°39'0 0.3
2018-Aug-06 10:57N 43°36' W 005°39'0 0.1
2018-Aug-06 10:21N 43°36' W 005°39'0 0.0
2018-Aug-06 09:45N 43°36' W 005°39'0 0.1
2018-Aug-06 09:23N 43°36' W 005°39'0 0.1
2018-Aug-06 08:56N 43°36' W 005°39'0 0.1
2018-Aug-06 08:26N 43°36' W 005°39'0 0.0
2018-Aug-06 07:56N 43°36' W 005°39'0 0.0
2018-Aug-06 07:26N 43°36' W 005°39'0 0.0
2018-Aug-06 06:58N 43°36' W 005°39'0 0.0
2018-Aug-06 06:25N 43°36' W 005°39'0 0.0
2018-Aug-06 05:52N 43°36' W 005°39'0 0.1
2018-Aug-06 05:25N 43°36' W 005°39'0 0.0
2018-Aug-06 04:55N 43°36' W 005°39'0 0.0
2018-Aug-06 04:12N 43°36' W 005°39'0 0.0
2018-Aug-06 04:00N 43°36' W 005°39'0 0.0
2018-Aug-06 03:30N 43°36' W 005°39'0 0.0
2018-Aug-06 03:00N 43°36' W 005°39'0 0.0
2018-Aug-06 02:23N 43°36' W 005°39'0 0.1
2018-Aug-06 01:53N 43°36' W 005°39'0 0.0
2018-Aug-06 01:29N 43°36' W 005°39'0 0.1
2018-Aug-06 00:53N 43°36' W 005°39'0 0.1
2018-Aug-06 00:29N 43°36' W 005°39'0 0.0
2018-Aug-05 23:58N 43°36' W 005°39'0 0.0
2018-Aug-05 23:25N 43°36' W 005°39'0 0.0
2018-Aug-05 22:55N 43°36' W 005°39'0 0.0
2018-Aug-05 20:39N 43°36' W 005°39'0 0.1
2018-Aug-05 20:27N 43°36' W 005°39'0 0.0
2018-Aug-05 19:57N 43°36' W 005°39'0 0.0
2018-Aug-05 19:26N 43°36' W 005°39'0 0.0
2018-Aug-05 18:56N 43°36' W 005°39'0 0.0
2018-Aug-05 18:26N 43°36' W 005°39'0 0.0
2018-Aug-05 16:37N 43°36' W 005°39'0 0.1
2018-Aug-05 16:25N 43°36' W 005°39'0 0.0
2018-Aug-05 15:55N 43°36' W 005°39'0 0.0
2018-Aug-05 15:25N 43°36' W 005°39'0 0.0
2018-Aug-05 15:01N 43°36' W 005°39'0 0.0
2018-Aug-05 13:57N 43°36' W 005°39'0 0.0
2018-Aug-05 13:30N 43°36' W 005°39'0 0.0
2018-Aug-05 13:00N 43°36' W 005°39'0 0.0
2018-Aug-05 12:17N 43°36' W 005°39'0 0.0
2018-Aug-05 11:53N 43°36' W 005°39'0 0.0
2018-Aug-05 11:23N 43°36' W 005°39'0 0.0
2018-Aug-05 10:16N 43°36' W 005°39'0 0.0
2018-Aug-05 09:34N 43°36' W 005°39'0 0.2
2018-Aug-05 09:28N 43°36' W 005°39'0 0.1
2018-Aug-05 08:52N 43°36' W 005°39'0 0.0
2018-Aug-05 08:28N 43°36' W 005°39'0 0.1
2018-Aug-05 07:57N 43°36' W 005°39'0 0.1
2018-Aug-05 07:27N 43°36' W 005°39'0 0.0
2018-Aug-05 06:57N 43°36' W 005°39'0 0.1
2018-Aug-05 06:27N 43°36' W 005°39'0 0.1
2018-Aug-05 05:57N 43°36' W 005°39'0 0.0
2018-Aug-05 05:26N 43°36' W 005°39'0 0.0
2018-Aug-05 04:44N 43°36' W 005°39'0 0.1
2018-Aug-05 04:26N 43°36' W 005°39'0 0.0
2018-Aug-05 03:56N 43°36' W 005°39'0 0.0
2018-Aug-05 03:25N 43°36' W 005°39'0 0.1
2018-Aug-05 02:55N 43°36' W 005°39'0 0.0
2018-Aug-05 02:19N 43°36' W 005°39'0 0.1
2018-Aug-05 01:55N 43°36' W 005°39'0 0.0
2018-Aug-05 01:25N 43°36' W 005°39'0 0.0
2018-Aug-05 01:00N 43°36' W 005°39'0 0.0
2018-Aug-05 00:30N 43°36' W 005°39'0 0.1
2018-Aug-05 00:00N 43°36' W 005°39'  
Track history (hours):
 
Tides and Currents Weather Stations Pressure Air Temp Water Temp Dewpoint Dewpoint Depression Visibility Wind Speed Wind Dir Waves Ship Positions

Citadel

Last reported at 2018-Aug-14 23:30 UTC. Time now 2018-Aug-14 23:41 UTC.
Position N 52°20' E 003°37'.

Length 111 m; draft 4.3 m.

Type: Cargo ship. MMSI: 245977000.

Date/timePositionNaut miles runAvg speedWind from/ knotsBaromVisibWave heightAir tempDewpointWater temp
2018-Aug-14 23:30N 52°20' E 003°37'1110.9
2018-Aug-14 22:29N 52°10' E 003°29'511.0
2018-Aug-14 22:00N 52°05' E 003°25'611.3
2018-Aug-14 21:30N 51°59' E 003°24'711.8
2018-Aug-14 20:57N 51°53' E 003°21'612.3
2018-Aug-14 20:29N 51°47' E 003°18'511.5
2018-Aug-14 20:00N 51°42' E 003°18'713.6
2018-Aug-14 19:30N 51°36' E 003°23'714.1
2018-Aug-14 19:00N 51°30' E 003°29'612.1
2018-Aug-14 18:30N 51°26' E 003°36'611.1
2018-Aug-14 18:01N 51°23' E 003°44'5 9.3
2018-Aug-14 17:31N 51°20' E 003°49'1 2.0
2018-Aug-14 17:00N 51°19' E 003°50'4 7.6
2018-Aug-14 16:31N 51°15' E 003°49'4 7.7
2018-Aug-14 16:00N 51°11' E 003°48'1 3.0
2018-Aug-14 15:30N 51°10' E 003°47'0 0.0
2018-Aug-14 15:00N 51°10' E 003°47'0 0.0
2018-Aug-14 14:30N 51°10' E 003°47'0 0.0
2018-Aug-14 13:59N 51°10' E 003°47'0 0.0
2018-Aug-14 13:29N 51°10' E 003°47'0 0.0
2018-Aug-14 12:59N 51°10' E 003°47'0 0.0
2018-Aug-14 12:29N 51°10' E 003°47'0 0.0
2018-Aug-14 11:59N 51°10' E 003°47'0 0.0
2018-Aug-14 11:28N 51°10' E 003°47'0 0.0
2018-Aug-14 10:58N 51°10' E 003°47'0 0.0
2018-Aug-14 10:28N 51°10' E 003°47'0 0.0
2018-Aug-14 09:58N 51°10' E 003°47'0 0.0
2018-Aug-14 09:28N 51°10' E 003°47'0 0.0
2018-Aug-14 09:00N 51°10' E 003°47'0 0.0
2018-Aug-14 08:30N 51°10' E 003°47'0 0.0
2018-Aug-14 08:00N 51°10' E 003°47'0 0.0
2018-Aug-14 07:30N 51°10' E 003°47'0 0.0
2018-Aug-14 06:59N 51°10' E 003°47'0 0.0
2018-Aug-14 06:29N 51°10' E 003°47'0 0.0
2018-Aug-14 05:59N 51°10' E 003°47'0 0.0
2018-Aug-14 05:23N 51°10' E 003°47'0 0.0
2018-Aug-14 04:59N 51°10' E 003°47'0 0.0
2018-Aug-14 04:28N 51°10' E 003°47'0 0.0
2018-Aug-14 03:58N 51°10' E 003°47'0 0.0
2018-Aug-14 03:28N 51°10' E 003°47'0 0.0
2018-Aug-14 02:58N 51°10' E 003°47'0 0.0
2018-Aug-14 02:30N 51°10' E 003°47'0 0.0
2018-Aug-14 02:00N 51°10' E 003°47'0 0.0
2018-Aug-14 01:27N 51°10' E 003°47'0 0.0
2018-Aug-14 01:00N 51°10' E 003°47'0 0.0
2018-Aug-14 00:30N 51°10' E 003°47'0 0.0
2018-Aug-13 23:59N 51°10' E 003°47'0 0.0
2018-Aug-13 23:29N 51°10' E 003°47'0 0.0
2018-Aug-13 22:59N 51°10' E 003°47'0 0.0
2018-Aug-13 22:26N 51°10' E 003°47'0 0.0
2018-Aug-13 21:59N 51°10' E 003°47'0 0.0
2018-Aug-13 21:28N 51°10' E 003°47'0 0.0
2018-Aug-13 20:58N 51°10' E 003°47'0 0.0
2018-Aug-13 20:28N 51°10' E 003°47'0 0.0
2018-Aug-13 19:55N 51°10' E 003°47'0 0.0
2018-Aug-13 19:30N 51°10' E 003°47'0 0.0
2018-Aug-13 19:00N 51°10' E 003°47'0 0.0
2018-Aug-13 18:30N 51°10' E 003°47'0 0.0
2018-Aug-13 18:00N 51°10' E 003°47'0 0.0
2018-Aug-13 17:30N 51°10' E 003°47'0 0.0
2018-Aug-13 16:59N 51°10' E 003°47'0 0.0
2018-Aug-13 16:29N 51°10' E 003°47'0 0.0
2018-Aug-13 15:59N 51°10' E 003°47'0 0.0
2018-Aug-13 15:29N 51°10' E 003°47'0 0.0
2018-Aug-13 14:58N 51°10' E 003°47'0 0.0
2018-Aug-13 14:28N 51°10' E 003°47'0 0.0
2018-Aug-13 13:58N 51°10' E 003°47'0 0.0
2018-Aug-13 13:28N 51°10' E 003°47'0 0.2
2018-Aug-13 13:01N 51°10' E 003°47'2 4.7
2018-Aug-13 12:30N 51°12' E 003°48'3 6.9
2018-Aug-13 12:00N 51°15' E 003°50'3 6.5
2018-Aug-13 11:30N 51°19' E 003°50'1 2.3
2018-Aug-13 11:00N 51°20' E 003°49'0 0.7
2018-Aug-13 10:30N 51°20' E 003°49'1 1.9
2018-Aug-13 10:00N 51°21' E 003°48'4 8.4
2018-Aug-13 09:31N 51°23' E 003°43'4 8.8
2018-Aug-13 09:00N 51°26' E 003°37'5 9.7
2018-Aug-13 08:30N 51°25' E 003°29'5 9.8
2018-Aug-13 08:00N 51°24' E 003°21'5 9.0
2018-Aug-13 07:30N 51°24' E 003°14'5 9.5
2018-Aug-13 07:00N 51°24' E 003°07'5 9.2
2018-Aug-13 06:30N 51°23' E 002°59'510.4
2018-Aug-13 06:00N 51°22' E 002°51'510.3
2018-Aug-13 05:30N 51°22' E 002°43'4 6.8
2018-Aug-13 04:57N 51°21' E 002°37'3 4.2
2018-Aug-13 04:11N 51°20' E 002°33'0 0.1
2018-Aug-13 03:56N 51°20' E 002°33'0 0.0
2018-Aug-13 03:29N 51°20' E 002°33'0 0.0
2018-Aug-13 02:52N 51°20' E 002°33'0 0.0
2018-Aug-13 02:28N 51°20' E 002°33'0 0.0
2018-Aug-13 01:43N 51°20' E 002°33'0 0.0
2018-Aug-13 01:25N 51°20' E 002°33'0 0.0
2018-Aug-13 00:54N 51°20' E 002°33'0 0.0
2018-Aug-13 00:30N 51°20' E 002°33'0 0.1
2018-Aug-13 00:00N 51°20' E 002°33'0 0.2
2018-Aug-12 23:18N 51°20' E 002°32'0 0.0
2018-Aug-12 20:35N 51°20' E 002°32'0 0.1
2018-Aug-12 20:28N 51°20' E 002°32'0 0.0
2018-Aug-12 18:34N 51°20' E 002°32'0 0.0
2018-Aug-12 18:07N 51°20' E 002°32'0 0.0
2018-Aug-12 17:54N 51°20' E 002°32'0 0.1
2018-Aug-12 17:27N 51°20' E 002°32'0 0.1
2018-Aug-12 17:00N 51°20' E 002°32'0 0.0
2018-Aug-12 16:24N 51°20' E 002°32'0 0.0
2018-Aug-12 16:00N 51°20' E 002°32'0 0.0
2018-Aug-12 15:29N 51°20' E 002°32'0 0.0
2018-Aug-12 14:56N 51°20' E 002°33'0 0.0
2018-Aug-12 14:29N 51°20' E 002°33'0 0.0
2018-Aug-12 13:59N 51°20' E 002°33'0 0.1
2018-Aug-12 13:28N 51°20' E 002°33'0 0.0
2018-Aug-12 12:58N 51°20' E 002°33'0 0.0
2018-Aug-12 12:28N 51°20' E 002°33'0 0.1
2018-Aug-12 11:55N 51°20' E 002°33'0 0.1
2018-Aug-12 11:28N 51°20' E 002°33'0 0.3
2018-Aug-12 11:00N 51°20' E 002°32'0 0.1
2018-Aug-12 10:18N 51°20' E 002°32'0 0.0
2018-Aug-12 09:57N 51°20' E 002°32'0 0.0
2018-Aug-12 09:30N 51°20' E 002°32'0 0.0
2018-Aug-12 08:53N 51°20' E 002°32'0 0.0
2018-Aug-12 08:29N 51°20' E 002°32'0 0.0
2018-Aug-12 07:59N 51°20' E 002°32'0 0.0
2018-Aug-12 07:29N 51°20' E 002°32'0 0.1
2018-Aug-12 06:56N 51°20' E 002°32'0 0.1
2018-Aug-12 06:25N 51°20' E 002°32'0 0.1
2018-Aug-12 05:58N 51°20' E 002°32'0 0.1
2018-Aug-12 05:28N 51°20' E 002°32'0 0.1
2018-Aug-12 04:58N 51°20' E 002°32'0 0.1
2018-Aug-12 04:25N 51°20' E 002°32'0 0.0
2018-Aug-12 03:57N 51°20' E 002°32'0 0.0
2018-Aug-12 03:30N 51°20' E 002°33'0 0.1
2018-Aug-12 03:00N 51°20' E 002°33'0 0.0
2018-Aug-12 02:27N 51°20' E 002°33'0 0.0
2018-Aug-12 01:59N 51°20' E 002°33'0 0.0
2018-Aug-12 01:29N 51°20' E 002°33'0 0.0
2018-Aug-12 00:59N 51°20' E 002°33'0 0.0
2018-Aug-12 00:29N 51°20' E 002°33'0 0.0
2018-Aug-11 23:59N 51°20' E 002°33'0 0.0
2018-Aug-11 23:25N 51°20' E 002°33'0 0.3
2018-Aug-11 22:58N 51°20' E 002°32'0 0.2
2018-Aug-11 22:25N 51°20' E 002°32'0 0.0
2018-Aug-11 21:58N 51°20' E 002°32'0 0.0
2018-Aug-11 21:16N 51°20' E 002°32'0 0.0
2018-Aug-11 20:51N 51°20' E 002°32'0 0.0
2018-Aug-11 20:27N 51°20' E 002°32'0 0.0
2018-Aug-11 20:00N 51°20' E 002°32'0 0.1
2018-Aug-11 19:21N 51°20' E 002°32'0 0.1
2018-Aug-11 18:56N 51°20' E 002°32'0 0.1
2018-Aug-11 18:29N 51°20' E 002°32'0 0.0
2018-Aug-11 17:56N 51°20' E 002°32'0 0.0
2018-Aug-11 17:29N 51°20' E 002°32'0 0.1
2018-Aug-11 16:53N 51°20' E 002°32'0 0.1
2018-Aug-11 15:55N 51°20' E 002°32'0 0.0
2018-Aug-11 15:28N 51°20' E 002°32'0 0.0
2018-Aug-11 14:58N 51°20' E 002°32'0 0.0
2018-Aug-11 14:31N 51°20' E 002°32'0 0.0
2018-Aug-11 13:51N 51°20' E 002°33'0 0.0
2018-Aug-11 13:24N 51°20' E 002°33'0 0.0
2018-Aug-11 12:30N 51°20' E 002°33'0 0.0
2018-Aug-11 11:59N 51°20' E 002°32'0 0.0
2018-Aug-11 11:29N 51°20' E 002°32'0 0.2
2018-Aug-11 10:53N 51°20' E 002°33'0 0.4
2018-Aug-11 10:26N 51°20' E 002°32'0 0.2
2018-Aug-11 09:59N 51°20' E 002°32'0 0.1
2018-Aug-11 09:19N 51°20' E 002°32'0 0.0
2018-Aug-11 08:58N 51°20' E 002°32'0 0.0
2018-Aug-11 08:19N 51°20' E 002°32'0 0.1
2018-Aug-11 07:58N 51°20' E 002°32'0 0.1
2018-Aug-11 07:31N 51°20' E 002°32'0 0.1
2018-Aug-11 06:57N 51°20' E 002°32'0 0.0
2018-Aug-11 06:24N 51°20' E 002°32'0 0.0
2018-Aug-11 06:00N 51°20' E 002°32'0 0.0
2018-Aug-11 05:30N 51°20' E 002°32'0 0.1
2018-Aug-11 04:56N 51°20' E 002°32'0 0.2
2018-Aug-11 04:05N 51°20' E 002°33'0 0.0
2018-Aug-11 03:11N 51°20' E 002°33'0 0.0
2018-Aug-11 01:49N 51°20' E 002°33'0 0.3
2018-Aug-11 01:23N 51°20' E 002°32'2 4.4
2018-Aug-11 00:58N 51°22' E 002°31'612.0
2018-Aug-11 00:30N 51°20' E 002°23'612.8
2018-Aug-11 00:00N 51°16' E 002°14'613.1
2018-Aug-10 23:30N 51°13' E 002°05'713.2
2018-Aug-10 23:00N 51°10' E 001°56'713.2
2018-Aug-10 22:30N 51°06' E 001°47'713.5
2018-Aug-10 22:00N 51°01' E 001°40'713.3
2018-Aug-10 21:29N 50°56' E 001°32'612.2
2018-Aug-10 21:00N 50°51' E 001°28'611.4
2018-Aug-10 20:29N 50°46' E 001°24'55 9.8
2018-Aug-10 14:51N 50°20' E 000°07'5 9.2
2018-Aug-10 14:22N 50°19' E 000°00'6 9.1
2018-Aug-10 13:40N 50°18' W 000°09'2 9.0
2018-Aug-10 13:29N 50°17' W 000°12'5 8.8
2018-Aug-10 12:52N 50°15' W 000°20'4 8.8
2018-Aug-10 12:23N 50°14' W 000°26'6 9.0
2018-Aug-10 11:45N 50°13' W 000°35'18211.1
2018-Aug-09 19:20N 48°52' W 004°46'4 9.1
2018-Aug-09 18:56N 48°50' W 004°50'4 9.2
2018-Aug-09 18:30N 48°47' W 004°55'5 9.6
2018-Aug-09 18:01N 48°44' W 005°01'5 9.8
2018-Aug-09 17:30N 48°41' W 005°07'510.5
2018-Aug-09 17:00N 48°38' W 005°13'1310.5
2018-Aug-09 15:49N 48°28' W 005°24'2010.7
2018-Aug-09 13:53N 48°08' W 005°25'26910.6
2018-Aug-08 12:27N 43°39' W 005°40'4 9.0
2018-Aug-08 12:00N 43°35' W 005°41'0 0.3
2018-Aug-08 11:30N 43°35' W 005°41'0 0.0
2018-Aug-08 11:00N 43°35' W 005°41'0 0.0
2018-Aug-08 10:29N 43°35' W 005°41'0 0.0
2018-Aug-08 09:58N 43°35' W 005°41'0 0.0
2018-Aug-08 09:28N 43°35' W 005°41'0 0.0
2018-Aug-08 08:58N 43°35' W 005°41'0 0.0
2018-Aug-08 08:28N 43°35' W 005°41'0 0.0
2018-Aug-08 07:51N 43°35' W 005°41'0 0.0
2018-Aug-08 07:21N 43°35' W 005°41'0 0.0
2018-Aug-08 06:57N 43°35' W 005°41'0 0.0
2018-Aug-08 06:27N 43°35' W 005°41'0 0.0
2018-Aug-08 05:57N 43°35' W 005°41'0 0.0
2018-Aug-08 05:20N 43°35' W 005°41'0 0.0
2018-Aug-08 04:50N 43°35' W 005°41'0 0.0
2018-Aug-08 04:26N 43°35' W 005°41'0 0.0
2018-Aug-08 03:50N 43°35' W 005°41'0 0.0
2018-Aug-08 03:26N 43°35' W 005°41'0 0.0
2018-Aug-08 02:55N 43°35' W 005°41'0 0.1
2018-Aug-08 02:25N 43°35' W 005°41'0 0.0
2018-Aug-08 01:55N 43°35' W 005°41'0 0.0
2018-Aug-08 01:25N 43°35' W 005°41'0 0.0
2018-Aug-08 01:01N 43°35' W 005°41'0 0.0
2018-Aug-08 00:30N 43°35' W 005°41'0 0.5
2018-Aug-07 23:58N 43°35' W 005°41'2 0.4
2018-Aug-07 20:24N 43°36' W 005°39'0 0.0
2018-Aug-07 20:00N 43°36' W 005°39'0 0.0
2018-Aug-07 19:29N 43°36' W 005°39'0 0.0
2018-Aug-07 18:59N 43°36' W 005°39'0 0.0
2018-Aug-07 18:29N 43°36' W 005°39'0 0.0
2018-Aug-07 17:53N 43°36' W 005°39'0 0.1
2018-Aug-07 17:28N 43°36' W 005°39'0 0.0
2018-Aug-07 16:52N 43°36' W 005°39'0 0.0
2018-Aug-07 16:16N 43°36' W 005°39'0 0.0
2018-Aug-07 15:58N 43°36' W 005°39'0 0.0
2018-Aug-07 15:28N 43°36' W 005°39'0 0.0
2018-Aug-07 13:09N 43°36' W 005°39'0 0.2
2018-Aug-07 12:56N 43°36' W 005°39'0 0.0
2018-Aug-07 12:26N 43°36' W 005°39'0 0.0
2018-Aug-07 11:56N 43°36' W 005°39'0 0.0
2018-Aug-07 11:20N 43°36' W 005°39'0 0.0
2018-Aug-07 10:56N 43°36' W 005°39'0 0.0
2018-Aug-07 09:49N 43°36' W 005°39'0 0.0
2018-Aug-07 09:25N 43°36' W 005°39'0 0.0
2018-Aug-07 08:18N 43°36' W 005°39'0 0.0
2018-Aug-07 08:00N 43°36' W 005°39'0 0.0
2018-Aug-07 07:24N 43°36' W 005°39'0 0.0
2018-Aug-07 07:00N 43°36' W 005°39'0 0.0
2018-Aug-07 06:30N 43°36' W 005°39'0 0.0
2018-Aug-07 05:59N 43°36' W 005°39'0 0.0
2018-Aug-07 05:17N 43°36' W 005°39'0 0.0
2018-Aug-07 04:47N 43°36' W 005°39'0 0.0
2018-Aug-07 04:29N 43°36' W 005°39'0 0.0
2018-Aug-07 03:52N 43°36' W 005°39'0 0.0
2018-Aug-07 03:22N 43°36' W 005°39'0 0.0
2018-Aug-07 02:58N 43°36' W 005°39'0 0.0
2018-Aug-07 02:28N 43°36' W 005°39'0 0.0
2018-Aug-07 01:58N 43°36' W 005°39'0 0.0
2018-Aug-07 01:27N 43°36' W 005°39'0 0.0
2018-Aug-07 00:57N 43°36' W 005°39'0 0.1
2018-Aug-07 00:21N 43°36' W 005°39'0 0.0
2018-Aug-06 23:57N 43°36' W 005°39'0 0.0
2018-Aug-06 19:43N 43°36' W 005°39'0 0.0
2018-Aug-06 19:25N 43°36' W 005°39'0 0.0
2018-Aug-06 18:55N 43°36' W 005°39'0 0.0
2018-Aug-06 18:30N 43°36' W 005°39'0 0.0
2018-Aug-06 18:00N 43°36' W 005°39'0 0.0
2018-Aug-06 17:30N 43°36' W 005°39'0 0.0
2018-Aug-06 17:00N 43°36' W 005°39'0 0.0
2018-Aug-06 16:24N 43°36' W 005°39'0 0.0
2018-Aug-06 15:59N 43°36' W 005°39'0 0.0
2018-Aug-06 15:29N 43°36' W 005°39'0 0.0
2018-Aug-06 14:53N 43°36' W 005°39'0 0.1
2018-Aug-06 14:29N 43°36' W 005°39'0 0.1
2018-Aug-06 13:58N 43°36' W 005°39'0 0.1
2018-Aug-06 13:22N 43°36' W 005°39'0 0.0
2018-Aug-06 12:58N 43°36' W 005°39'0 0.0
2018-Aug-06 12:28N 43°36' W 005°39'0 0.0
2018-Aug-06 11:52N 43°36' W 005°39'0 0.1
2018-Aug-06 11:27N 43°36' W 005°39'0 0.3
2018-Aug-06 10:57N 43°36' W 005°39'0 0.1
2018-Aug-06 10:21N 43°36' W 005°39'0 0.0
2018-Aug-06 09:45N 43°36' W 005°39'0 0.1
2018-Aug-06 09:23N 43°36' W 005°39'0 0.1
2018-Aug-06 08:56N 43°36' W 005°39'0 0.1
2018-Aug-06 08:26N 43°36' W 005°39'0 0.0
2018-Aug-06 07:56N 43°36' W 005°39'0 0.0
2018-Aug-06 07:26N 43°36' W 005°39'0 0.0
2018-Aug-06 06:58N 43°36' W 005°39'0 0.0
2018-Aug-06 06:25N 43°36' W 005°39'0 0.0
2018-Aug-06 05:52N 43°36' W 005°39'0 0.1
2018-Aug-06 05:25N 43°36' W 005°39'0 0.0
2018-Aug-06 04:55N 43°36' W 005°39'0 0.0
2018-Aug-06 04:12N 43°36' W 005°39'0 0.0
2018-Aug-06 04:00N 43°36' W 005°39'0 0.0
2018-Aug-06 03:30N 43°36' W 005°39'0 0.0
2018-Aug-06 03:00N 43°36' W 005°39'0 0.0
2018-Aug-06 02:23N 43°36' W 005°39'0 0.1
2018-Aug-06 01:53N 43°36' W 005°39'0 0.0
2018-Aug-06 01:29N 43°36' W 005°39'0 0.1
2018-Aug-06 00:53N 43°36' W 005°39'0 0.1
2018-Aug-06 00:29N 43°36' W 005°39'0 0.0
2018-Aug-05 23:58N 43°36' W 005°39'0 0.0
2018-Aug-05 23:25N 43°36' W 005°39'0 0.0
2018-Aug-05 22:55N 43°36' W 005°39'0 0.0
2018-Aug-05 20:39N 43°36' W 005°39'0 0.1
2018-Aug-05 20:27N 43°36' W 005°39'0 0.0
2018-Aug-05 19:57N 43°36' W 005°39'0 0.0
2018-Aug-05 19:26N 43°36' W 005°39'0 0.0
2018-Aug-05 18:56N 43°36' W 005°39'0 0.0
2018-Aug-05 18:26N 43°36' W 005°39'0 0.0
2018-Aug-05 16:37N 43°36' W 005°39'0 0.1
2018-Aug-05 16:25N 43°36' W 005°39'0 0.0
2018-Aug-05 15:55N 43°36' W 005°39'0 0.0
2018-Aug-05 15:25N 43°36' W 005°39'0 0.0
2018-Aug-05 15:01N 43°36' W 005°39'0 0.0
2018-Aug-05 13:57N 43°36' W 005°39'0 0.0
2018-Aug-05 13:30N 43°36' W 005°39'0 0.0
2018-Aug-05 13:00N 43°36' W 005°39'0 0.0
2018-Aug-05 12:17N 43°36' W 005°39'0 0.0
2018-Aug-05 11:53N 43°36' W 005°39'0 0.0
2018-Aug-05 11:23N 43°36' W 005°39'0 0.0
2018-Aug-05 10:16N 43°36' W 005°39'0 0.0
2018-Aug-05 09:34N 43°36' W 005°39'0 0.2
2018-Aug-05 09:28N 43°36' W 005°39'0 0.1
2018-Aug-05 08:52N 43°36' W 005°39'0 0.0
2018-Aug-05 08:28N 43°36' W 005°39'0 0.1
2018-Aug-05 07:57N 43°36' W 005°39'0 0.1
2018-Aug-05 07:27N 43°36' W 005°39'0 0.0
2018-Aug-05 06:57N 43°36' W 005°39'0 0.1
2018-Aug-05 06:27N 43°36' W 005°39'0 0.1
2018-Aug-05 05:57N 43°36' W 005°39'0 0.0
2018-Aug-05 05:26N 43°36' W 005°39'0 0.0
2018-Aug-05 04:44N 43°36' W 005°39'0 0.1
2018-Aug-05 04:26N 43°36' W 005°39'0 0.0
2018-Aug-05 03:56N 43°36' W 005°39'0 0.0
2018-Aug-05 03:25N 43°36' W 005°39'0 0.1
2018-Aug-05 02:55N 43°36' W 005°39'0 0.0
2018-Aug-05 02:19N 43°36' W 005°39'0 0.1
2018-Aug-05 01:55N 43°36' W 005°39'0 0.0
2018-Aug-05 01:25N 43°36' W 005°39'0 0.0
2018-Aug-05 01:00N 43°36' W 005°39'0 0.0
2018-Aug-05 00:30N 43°36' W 005°39'0 0.1
2018-Aug-05 00:00N 43°36' W 005°39'  

Dump ship's entire track history